Back to top

Rock Springs, WY weather

Rock Springs-Sweetwater County Airport, Rock Springs, WY: 8/18/2022 02:54
Visibility10 statute milesclear sky
View 7-Day Forecast
Area Summary
Sky/CloudsSky Clear
Weather [last 24 hours]None
Pressure30.34 in.Hg (1028 hPa)
3-hour Pressure Tendency0.02067 in.Hg (0.7 hPa) Decreasing or steady, then increasing; or increasing then increasing more rapidly
Dew Point37.9 °F (3.3 °C)
Relative Humidity43.7 %
Temperature60.1 °F (15.6 °C)red thermometer
Reading TimeMinimum to Maximum Temperature
6-hr ending 8/17@23:5466 °F to 84 °F (18.9 °C to 28.9 °C)
6-hr ending 8/17@17:5477 °F to 88 °F (25 °C to 31.1 °C)
6-hr ending 8/17@11:5455 °F to 79 °F (12.8 °C to 26.1 °C)
6-hr ending 8/17@05:5454 °F to 64.9 °F (12.2 °C to 18.3 °C)
24-hr ending 8/18@00:5454 °F to 88 °F (12.2 °C to 31.1 °C)
Wind10.4 MPH (9 KT) green arrow pointing 67.5 degrees
Wind FromEast/Northeast (070 Degrees)
Rolling 24-hr Peak Wind33.4 MPH (29 KT) on 8/17@15:40
Rolling 24-hr Peak Wind FromNorth (010 Degrees)
Twilight Begins05:59Sunshine Yesterday
Sunrise06:28N/A
Sunset20:11
Twilight Ends20:41
METARKRKS 180854Z AUTO 07009KT 10SM CLR 16/03 A3034 RMK AO2 SLP181 T01560033 53007
Tags: